Time;durP1;ratioP1;P1;durP2;ratioP2;P2;SDS_P1;SDS_P2;PMS_P1;PMS_P2;Temp;Humidity;BMP_temperature;BMP_pressure;BME280_temperature;BME280_humidity;BME280_pressure;Samples;Min_cycle;Max_cycle;Signal;HPM_P1;HPM_P2
2022/06/06 00:06:43;;;;;;;6.85;4.85;;;;;;;17.00;69.70;100685.68;712652;1179;114276;-74
2022/06/06 00:21:47;;;;;;;10.07;5.53;;;;;;;16.62;70.19;100678.20;712905;1178;115994;-74
2022/06/06 00:36:51;;;;;;;6.23;4.43;;;;;;;16.38;71.40;100651.73;713063;1179;116136;-74
2022/06/06 00:51:54;;;;;;;9.73;4.90;;;;;;;16.29;71.69;100635.81;713159;1177;115547;-74
2022/06/06 01:06:57;;;;;;;7.30;4.30;;;;;;;16.22;71.64;100633.98;713550;1180;115578;-75
2022/06/06 01:22:46;;;;;;;12.23;5.03;;;;;;;16.21;72.10;100625.23;713266;1179;114402;-75
2022/06/06 01:37:48;;;;;;;8.98;5.23;;;;;;;15.96;72.73;100627.02;713996;1179;115860;-74
2022/06/06 01:53:03;;;;;;;6.58;4.15;;;;;;;15.84;73.50;100607.97;712510;1180;114887;-75
2022/06/06 02:08:07;;;;;;;8.85;5.35;;;;;;;15.65;73.56;100582.59;712996;1177;115582;-75
2022/06/06 02:23:10;;;;;;;11.53;7.57;;;;;;;15.57;73.92;100593.15;712444;1177;114617;-74
2022/06/06 02:38:13;;;;;;;6.50;4.80;;;;;;;15.67;74.26;100593.84;712151;1177;114772;-74
2022/06/06 02:53:15;;;;;;;7.55;4.90;;;;;;;15.83;74.44;100584.34;712314;1178;114713;-74
2022/06/06 03:08:45;;;;;;;9.63;5.17;;;;;;;15.97;74.39;100583.70;712851;1178;115986;-74
2022/06/06 03:24:14;;;;;;;6.30;4.38;;;;;;;16.37;74.43;100583.89;712733;1178;115056;-74
2022/06/06 03:39:29;;;;;;;5.23;3.90;;;;;;;16.74;75.10;100590.47;712348;1177;114704;-73
2022/06/06 03:54:42;;;;;;;7.63;4.83;;;;;;;17.09;75.02;100589.25;712258;1179;114940;-74
2022/06/06 04:09:47;;;;;;;6.95;5.48;;;;;;;17.57;74.98;100591.05;711875;1180;114652;-74
2022/06/06 04:25:05;;;;;;;7.13;4.50;;;;;;;18.29;73.79;100595.23;712812;1178;115119;-74
2022/06/06 04:40:20;;;;;;;6.00;4.20;;;;;;;18.91;72.26;100582.73;712590;1179;115603;-75
2022/06/06 04:55:25;;;;;;;12.00;7.75;;;;;;;19.56;71.00;100597.09;712664;1180;115107;-75
2022/06/06 05:10:37;;;;;;;11.13;6.70;;;;;;;19.88;69.80;100616.30;712357;1180;115107;-74
2022/06/06 05:26:05;;;;;;;6.55;5.20;;;;;;;20.38;69.34;100627.02;712618;1179;115981;-74
2022/06/06 05:41:17;;;;;;;8.85;6.05;;;;;;;20.92;68.53;100592.81;712384;1177;115406;-77
2022/06/06 05:56:52;;;;;;;10.73;6.97;;;;;;;21.33;68.42;100636.53;712458;1180;115739;-76
2022/06/06 06:12:14;;;;;;;8.20;6.40;;;;;;;21.85;68.21;100632.42;713266;1178;114852;-76
2022/06/06 06:27:19;;;;;;;8.73;5.77;;;;;;;22.82;68.39;100617.91;713877;1177;114872;-76
2022/06/06 06:42:58;;;;;;;7.70;5.73;;;;;;;23.42;68.32;100599.05;714137;1178;115041;-80
2022/06/06 06:58:18;;;;;;;6.43;5.77;;;;;;;24.20;67.01;100597.17;713139;1177;115039;-76
2022/06/06 07:13:34;;;;;;;5.87;4.77;;;;;;;24.42;65.23;100576.98;713080;1180;115349;-72
2022/06/06 07:28:36;;;;;;;4.85;4.45;;;;;;;25.42;63.58;100579.69;713142;1178;115248;-72
2022/06/06 07:43:57;;;;;;;5.13;4.53;;;;;;;25.74;62.07;100560.64;713528;1180;114343;-70
2022/06/06 07:59:20;;;;;;;5.60;4.05;;;;;;;26.05;59.96;100567.64;712626;1178;115791;-69
2022/06/06 08:14:48;;;;;;;6.25;3.70;;;;;;;26.72;58.70;100533.41;712960;1177;115398;-75
2022/06/06 08:29:51;;;;;;;;;;;;;;;27.39;55.47;100526.67;713222;1179;115605;-75
2022/06/06 08:45:22;;;;;;;5.00;3.77;;;;;;;27.80;57.46;100532.77;713079;1177;100675;-75
2022/06/06 09:00:43;;;;;;;4.98;3.98;;;;;;;28.56;55.42;100518.02;712138;1180;115920;-74
2022/06/06 09:16:23;;;;;;;3.50;3.20;;;;;;;28.73;53.73;100512.58;713107;1178;116045;-74
2022/06/06 09:31:49;;;;;;;3.00;2.70;;;;;;;28.81;51.79;100495.13;713165;1179;116035;-74
2022/06/06 09:47:24;;;;;;;3.93;2.47;;;;;;;29.68;51.15;100477.13;712907;1177;115228;-72
2022/06/06 10:02:45;;;;;;;3.80;2.75;;;;;;;30.21;49.68;100468.31;713293;1178;115224;-73
2022/06/06 10:18:12;;;;;;;5.93;3.60;;;;;;;29.96;50.05;100467.08;713342;1178;114781;-80
2022/06/06 10:33:43;;;;;;;4.58;3.48;;;;;;;29.95;49.94;100448.41;713273;1178;115738;-79
2022/06/06 10:49:01;;;;;;;2.73;2.47;;;;;;;30.43;48.52;100442.97;713260;1177;115780;-80
2022/06/06 11:04:32;;;;;;;3.90;3.20;;;;;;;30.35;46.55;100431.59;713117;1177;115627;-83
2022/06/06 11:19:42;;;;;;;3.70;2.67;;;;;;;29.80;47.69;100428.28;713514;1178;115980;-77
2022/06/06 11:35:17;;;;;;;3.00;2.73;;;;;;;30.17;48.87;100423.91;717642;1179;116004;-87
2022/06/06 11:50:50;;;;;;;4.03;2.80;;;;;;;30.47;47.18;100420.55;714077;1177;115898;-85
2022/06/06 12:06:38;;;;;;;5.07;2.53;;;;;;;30.62;46.73;100406.27;714423;1180;115804;-87
2022/06/06 12:22:05;;;;;;;3.33;3.03;;;;;;;30.28;47.00;100389.63;714394;1180;114767;-83
2022/06/06 12:37:13;;;;;;;4.75;3.90;;;;;;;30.57;46.47;100386.52;716207;1177;115311;-87
2022/06/06 12:52:34;;;;;;;2.50;2.30;;;;;;;29.88;45.86;100373.75;713461;1180;115568;-85
2022/06/06 13:08:12;;;;;;;2.98;2.35;;;;;;;30.59;45.52;100363.48;716247;1178;114402;-86
2022/06/06 13:23:24;;;;;;;6.35;2.15;;;;;;;30.62;45.15;100352.14;714576;1180;115727;-84
2022/06/06 13:38:46;;;;;;;3.35;2.40;;;;;;;30.60;46.11;100353.48;715670;1178;115728;-84
2022/06/06 13:54:29;;;;;;;4.67;2.07;;;;;;;31.31;45.58;100335.68;714339;1179;114306;-86
2022/06/06 14:09:41;;;;;;;2.93;2.03;;;;;;;30.45;44.81;100314.46;714375;1180;116316;-86
2022/06/06 14:24:53;;;;;;;1.60;1.50;;;;;;;30.19;44.21;100308.17;714527;1179;114374;-86
2022/06/06 14:40:07;;;;;;;3.15;2.00;;;;;;;30.47;45.71;100301.49;715937;1180;116056;-87
2022/06/06 14:55:10;;;;;;;2.70;2.05;;;;;;;30.11;46.31;100287.86;714700;1180;115496;-86
2022/06/06 15:10:25;;;;;;;2.80;2.50;;;;;;;29.69;47.57;100278.77;713858;1179;115840;-85
2022/06/06 15:26:00;;;;;;;3.93;2.73;;;;;;;29.53;48.13;100263.54;714384;1170;115775;-85
2022/06/06 15:41:36;;;;;;;2.73;2.23;;;;;;;29.05;49.30;100258.89;714011;1177;115597;-86
2022/06/06 15:57:04;;;;;;;3.90;2.45;;;;;;;28.65;49.36;100260.21;714311;1180;115926;-85
2022/06/06 16:12:52;;;;;;;6.80;3.60;;;;;;;28.28;49.87;100258.19;713412;1178;115459;-77
2022/06/06 16:28:09;;;;;;;3.03;2.45;;;;;;;27.98;51.52;100237.91;714558;1180;116166;-79
2022/06/06 16:59:21;;;;;;;9.70;6.05;;;;;;;26.64;55.59;100270.93;713549;1178;115698;-78
2022/06/06 17:14:32;;;;;;;8.67;6.50;;;;;;;24.33;66.77;100288.82;713434;1177;115678;-80
2022/06/06 17:30:15;;;;;;;10.60;8.97;;;;;;;23.70;75.80;100295.30;713842;1179;115134;-74
2022/06/06 17:45:18;;;;;;;10.67;9.40;;;;;;;23.25;80.01;100272.25;714820;1177;116255;-75
2022/06/06 18:00:27;;;;;;;16.07;12.13;;;;;;;22.74;84.88;100282.90;713788;1177;115567;-75
2022/06/06 18:15:59;;;;;;;11.83;10.30;;;;;;;22.64;84.28;100293.23;713761;1177;116017;-74
2022/06/06 18:31:15;;;;;;;11.10;9.83;;;;;;;21.94;89.90;100297.41;712976;1178;115313;-75
2022/06/06 18:46:34;;;;;;;17.17;12.70;;;;;;;21.76;89.36;100291.91;712955;1177;115976;-78
2022/06/06 19:01:43;;;;;;;17.63;13.03;;;;;;;21.67;90.21;100269.98;713038;1180;115626;-76
2022/06/06 19:16:50;;;;;;;8.70;7.55;;;;;;;21.07;93.14;100310.81;713193;1179;116189;-76
2022/06/06 19:32:14;;;;;;;10.85;6.83;;;;;;;20.91;93.67;100277.37;712537;1178;115808;-76
2022/06/06 19:47:23;;;;;;;8.83;6.43;;;;;;;20.72;94.49;100235.52;712176;1179;115808;-76
2022/06/06 20:02:35;;;;;;;9.60;6.60;;;;;;;20.59;95.83;100215.80;712699;1178;115695;-76
2022/06/06 20:17:44;;;;;;;7.50;6.70;;;;;;;20.64;95.00;100196.55;713700;1177;114765;-75
2022/06/06 20:32:48;;;;;;;8.40;6.20;;;;;;;20.64;95.25;100182.38;713661;1170;116070;-76
2022/06/06 20:47:52;;;;;;;9.73;7.10;;;;;;;20.75;93.86;100185.29;712858;1179;115988;-75
2022/06/06 21:02:55;;;;;;;11.35;7.85;;;;;;;20.77;92.97;100199.25;713129;1180;115174;-76
2022/06/06 21:17:57;;;;;;;8.47;6.83;;;;;;;20.73;93.45;100195.35;713029;1177;116069;-76
2022/06/06 21:32:59;;;;;;;8.90;7.10;;;;;;;20.66;94.21;100210.47;713092;1177;116085;-76
2022/06/06 21:48:03;;;;;;;10.70;7.90;;;;;;;20.62;95.61;100201.25;712909;1180;115400;-76
2022/06/06 22:03:06;;;;;;;11.60;8.50;;;;;;;20.61;97.06;100202.27;712670;1177;115951;-75
2022/06/06 22:18:08;;;;;;;12.30;8.63;;;;;;;20.36;98.43;100192.17;712409;1178;115358;-75
2022/06/06 22:33:10;;;;;;;12.63;9.68;;;;;;;20.11;100.00;100203.41;712172;1179;115783;-75
2022/06/06 22:48:13;;;;;;;14.73;12.28;;;;;;;19.85;100.00;100220.09;712352;1177;114715;-75
2022/06/06 23:03:15;;;;;;;14.10;11.67;;;;;;;19.81;100.00;100210.86;712512;1177;116202;-75
2022/06/06 23:18:18;;;;;;;19.10;15.10;;;;;;;19.70;100.00;100190.91;712506;1177;114914;-75
2022/06/06 23:33:32;;;;;;;20.57;16.30;;;;;;;19.66;100.00;100191.52;711954;1180;116426;-75
2022/06/06 23:48:43;;;;;;;24.97;19.80;;;;;;;19.60;100.00;100187.80;712244;1177;116301;-75
